createdAt,value
2023-02-03T00:01:52.102Z,15.03
2023-02-03T00:03:55.363Z,16.20
2023-02-03T00:05:58.032Z,15.10
2023-02-03T00:08:02.246Z,16.87
2023-02-03T00:10:05.145Z,15.30
2023-02-03T00:12:08.701Z,16.07
2023-02-03T00:14:11.348Z,16.20
2023-02-03T00:16:14.096Z,16.40
2023-02-03T00:18:16.798Z,16.03
2023-02-03T00:20:20.072Z,16.73
2023-02-03T00:22:22.759Z,16.87
2023-02-03T00:24:26.831Z,15.60
2023-02-03T00:26:29.609Z,16.37
2023-02-03T00:28:33.711Z,16.97
2023-02-03T00:30:36.929Z,18.43
2023-02-03T00:32:39.670Z,16.53
2023-02-03T00:34:42.349Z,16.40
2023-02-03T00:36:49.134Z,18.07
2023-02-03T00:38:51.907Z,16.50
2023-02-03T00:40:55.914Z,17.07
2023-02-03T00:42:59.206Z,16.83
2023-02-03T00:45:03.632Z,16.00
2023-02-03T00:47:06.926Z,17.40
2023-02-03T00:49:09.671Z,15.70
2023-02-03T00:51:12.809Z,16.63
2023-02-03T00:53:15.496Z,16.93
2023-02-03T00:55:18.420Z,16.90
2023-02-03T00:57:22.417Z,17.50
2023-02-03T00:59:25.525Z,17.07
2023-02-03T01:01:28.288Z,16.60
2023-02-03T01:03:30.975Z,16.00
2023-02-03T01:05:33.637Z,16.87
2023-02-03T01:07:36.877Z,16.30
2023-02-03T01:09:39.724Z,16.33
2023-02-03T01:11:42.402Z,17.33
2023-02-03T01:13:46.636Z,17.20
2023-02-03T01:15:49.708Z,17.53
2023-02-03T01:17:52.373Z,17.30
2023-02-03T01:19:57.856Z,17.67
2023-02-03T01:22:00.543Z,18.00
2023-02-03T01:24:03.723Z,19.40
2023-02-03T01:26:06.840Z,17.50
2023-02-03T01:28:09.676Z,17.33
2023-02-03T01:30:14.131Z,16.57
2023-02-03T01:32:17.289Z,17.40
2023-02-03T01:34:20.553Z,17.43
2023-02-03T01:36:24.938Z,17.57
2023-02-03T01:38:27.630Z,16.80
2023-02-03T01:40:32.813Z,16.50
2023-02-03T01:42:35.517Z,17.43
2023-02-03T01:44:44.252Z,17.30
2023-02-03T01:46:49.028Z,17.13
2023-02-03T01:48:52.512Z,18.00
2023-02-03T01:50:55.167Z,16.20
2023-02-03T01:53:00.211Z,15.37
2023-02-03T01:55:04.193Z,15.40
2023-02-03T01:57:08.850Z,17.00
2023-02-03T01:59:11.495Z,15.77
2023-02-03T02:01:14.165Z,15.60
2023-02-03T02:03:18.508Z,15.33
2023-02-03T02:05:23.725Z,15.70
2023-02-03T02:07:26.463Z,15.80
2023-02-03T02:09:29.092Z,15.07
2023-02-03T02:11:31.774Z,15.97
2023-02-03T02:13:35.872Z,14.73
2023-02-03T02:15:45.373Z,13.97
2023-02-03T02:17:56.699Z,14.70
2023-02-03T02:20:19.821Z,14.83
2023-02-03T02:22:23.622Z,15.20
2023-02-03T02:24:35.455Z,14.83
2023-02-03T02:26:51.546Z,14.70
2023-02-03T02:29:05.630Z,15.63
2023-02-03T02:31:18.943Z,13.73
2023-02-03T02:33:29.794Z,13.93
2023-02-03T02:35:40.734Z,13.70
2023-02-03T02:37:47.693Z,14.10
2023-02-03T02:39:54.738Z,13.63
2023-02-03T02:41:59.232Z,14.30
2023-02-03T02:44:02.852Z,15.10
2023-02-03T02:46:09.723Z,14.43
2023-02-03T02:48:16.530Z,13.40
2023-02-03T02:50:22.666Z,13.83
2023-02-03T02:52:25.368Z,14.07
2023-02-03T02:54:28.077Z,13.83
2023-02-03T02:56:30.896Z,13.13
2023-02-03T02:58:34.308Z,14.37
2023-02-03T03:00:37.437Z,12.57
2023-02-03T03:02:40.179Z,11.80
2023-02-03T03:04:42.905Z,14.00
2023-02-03T03:06:47.813Z,13.40
2023-02-03T03:08:55.398Z,12.57
2023-02-03T03:10:58.095Z,12.17
2023-02-03T03:13:02.773Z,13.07
2023-02-03T03:15:07.262Z,12.27
2023-02-03T03:17:10.442Z,12.63
2023-02-03T03:19:14.183Z,12.03
2023-02-03T03:21:20.970Z,11.23
2023-02-03T03:23:26.255Z,11.20
2023-02-03T03:25:31.181Z,11.10
2023-02-03T03:27:35.690Z,11.97
2023-02-03T03:29:41.681Z,12.40
2023-02-03T03:31:47.548Z,10.43
2023-02-03T03:33:50.254Z,11.47
2023-02-03T03:35:56.189Z,11.40
2023-02-03T03:38:00.829Z,11.20
2023-02-03T03:40:09.343Z,11.10
2023-02-03T03:42:14.051Z,11.10
2023-02-03T03:44:16.940Z,10.83
2023-02-03T03:46:21.523Z,12.23
2023-02-03T03:48:26.859Z,10.70
2023-02-03T03:50:30.095Z,11.60
2023-02-03T03:52:34.774Z,12.40
2023-02-03T03:54:37.616Z,11.30
2023-02-03T03:56:49.662Z,11.20
2023-02-03T03:58:52.383Z,10.13
2023-02-03T04:00:55.383Z,10.20
2023-02-03T04:02:58.485Z,10.70
2023-02-03T04:05:01.781Z,10.53
2023-02-03T04:07:04.467Z,10.60
2023-02-03T04:09:07.198Z,10.60
2023-02-03T04:11:09.844Z,9.50
2023-02-03T04:13:16.013Z,10.60
2023-02-03T04:15:18.709Z,9.07
2023-02-03T04:17:21.503Z,10.37
2023-02-03T04:19:24.155Z,9.57
2023-02-03T04:21:27.139Z,9.57
2023-02-03T04:23:29.793Z,9.40
2023-02-03T04:25:32.553Z,9.33
2023-02-03T04:27:35.489Z,9.37
2023-02-03T04:29:39.733Z,9.17
2023-02-03T04:31:42.451Z,9.60
2023-02-03T04:33:45.160Z,9.83
2023-02-03T04:35:48.196Z,8.97
2023-02-03T04:37:50.886Z,9.00
2023-02-03T04:39:53.605Z,8.63
2023-02-03T04:41:56.305Z,8.63
2023-02-03T04:43:59.458Z,7.20
2023-02-03T04:46:03.454Z,7.33
2023-02-03T04:48:06.359Z,9.10
2023-02-03T04:50:09.471Z,8.27
2023-02-03T04:52:12.703Z,6.77
2023-02-03T04:54:15.458Z,7.87
2023-02-03T04:56:18.137Z,8.00
2023-02-03T04:58:20.826Z,7.70
2023-02-03T05:00:24.194Z,7.30
2023-02-03T05:02:28.129Z,6.77
2023-02-03T05:04:30.802Z,7.50
2023-02-03T05:06:33.459Z,6.20
2023-02-03T05:08:36.511Z,6.77
2023-02-03T05:10:39.129Z,6.17
2023-02-03T05:12:41.766Z,6.53
2023-02-03T05:14:44.451Z,5.93
2023-02-03T05:16:47.590Z,6.80
2023-02-03T05:18:51.923Z,6.60
2023-02-03T05:20:54.652Z,6.27
2023-02-03T05:22:57.338Z,6.37
2023-02-03T05:25:00.411Z,6.00
2023-02-03T05:27:03.092Z,5.60
2023-02-03T05:29:05.817Z,6.13
2023-02-03T05:31:08.854Z,5.77
2023-02-03T05:33:11.531Z,5.40
2023-02-03T05:35:15.588Z,5.50
2023-02-03T05:37:18.299Z,6.17
2023-02-03T05:39:21.336Z,5.63
2023-02-03T05:41:34.988Z,5.67
2023-02-03T05:43:38.835Z,5.20
2023-02-03T05:45:41.559Z,5.10
2023-02-03T05:47:44.554Z,5.53
2023-02-03T05:49:47.201Z,5.33
2023-02-03T05:51:51.204Z,5.20
2023-02-03T05:53:54.135Z,5.53
2023-02-03T05:55:57.251Z,5.60
2023-02-03T05:58:01.127Z,5.30
2023-02-03T06:00:04.133Z,4.83
2023-02-03T06:02:06.796Z,5.10
2023-02-03T06:04:13.455Z,4.70
2023-02-03T06:06:16.397Z,4.87
2023-02-03T06:08:20.399Z,4.70
2023-02-03T06:10:23.124Z,4.10
2023-02-03T06:12:28.256Z,4.53
2023-02-03T06:14:31.934Z,4.20
2023-02-03T06:16:34.660Z,4.17
2023-02-03T06:18:37.331Z,4.37
2023-02-03T06:20:41.492Z,4.70
2023-02-03T06:22:44.221Z,4.43
2023-02-03T06:24:48.254Z,4.50
2023-02-03T06:26:50.911Z,4.00
2023-02-03T06:28:58.800Z,4.13
2023-02-03T06:31:01.597Z,3.73
2023-02-03T06:33:04.566Z,3.57
2023-02-03T06:35:07.588Z,3.70
2023-02-03T06:37:10.467Z,3.60
2023-02-03T06:39:13.253Z,4.07
2023-02-03T06:41:17.660Z,3.80
2023-02-03T06:43:20.333Z,4.27
2023-02-03T06:45:24.811Z,3.20
2023-02-03T06:47:27.701Z,3.73
2023-02-03T06:49:31.195Z,3.30
2023-02-03T06:51:34.084Z,3.20
2023-02-03T06:53:36.758Z,3.20
2023-02-03T06:55:39.896Z,3.30
2023-02-03T06:57:48.398Z,3.30
2023-02-03T06:59:51.115Z,3.50
2023-02-03T07:01:53.914Z,3.17
2023-02-03T07:03:57.944Z,2.93
2023-02-03T07:06:00.611Z,3.50
2023-02-03T07:08:03.286Z,3.47
2023-02-03T07:10:06.742Z,3.50
2023-02-03T07:12:09.558Z,3.33
2023-02-03T07:14:13.531Z,3.20
2023-02-03T07:16:16.254Z,2.53
2023-02-03T07:18:45.718Z,2.90
2023-02-03T07:20:46.438Z,3.00
2023-02-03T07:22:53.388Z,2.93
2023-02-03T07:24:56.167Z,2.60
2023-02-03T07:26:59.284Z,2.87
2023-02-03T07:29:01.969Z,2.27
2023-02-03T07:31:08.183Z,2.80
2023-02-03T07:33:10.973Z,2.97
2023-02-03T07:35:13.662Z,2.97
2023-02-03T07:37:16.325Z,2.20
2023-02-03T07:39:19.654Z,2.77
2023-02-03T07:41:22.460Z,2.23
2023-02-03T07:43:25.259Z,2.10
2023-02-03T07:45:27.960Z,2.57
2023-02-03T07:47:35.988Z,2.30
2023-02-03T07:49:44.514Z,2.90
2023-02-03T07:51:50.653Z,2.53
2023-02-03T07:53:53.485Z,2.70
2023-02-03T07:56:00.903Z,3.20
2023-02-03T07:58:03.550Z,2.40
2023-02-03T08:00:07.028Z,2.70
2023-02-03T08:02:11.233Z,2.47
2023-02-03T08:04:16.616Z,3.17
2023-02-03T08:06:19.279Z,4.20
2023-02-03T08:08:21.996Z,4.23
2023-02-03T08:10:24.712Z,4.00
2023-02-03T08:12:28.760Z,5.10
2023-02-03T08:14:32.100Z,5.80
2023-02-03T08:16:35.394Z,5.60
2023-02-03T08:18:38.092Z,6.10
2023-02-03T08:20:42.688Z,6.10
2023-02-03T08:22:45.364Z,6.23
2023-02-03T08:24:48.089Z,6.30
2023-02-03T08:26:51.891Z,6.43
2023-02-03T08:28:55.128Z,6.60
2023-02-03T08:30:58.302Z,6.80
2023-02-03T08:33:01.062Z,6.87
2023-02-03T08:35:04.247Z,7.30
2023-02-03T08:37:08.422Z,7.30
2023-02-03T08:39:11.087Z,7.87
2023-02-03T08:41:15.434Z,8.30
2023-02-03T08:43:18.700Z,8.00
2023-02-03T08:45:21.451Z,7.50
2023-02-03T08:47:24.146Z,7.77
2023-02-03T08:49:27.209Z,8.40
2023-02-03T08:51:31.960Z,8.30
2023-02-03T08:53:35.940Z,8.50
2023-02-03T08:55:39.824Z,9.60
2023-02-03T08:57:42.503Z,7.97
2023-02-03T08:59:45.775Z,8.90
2023-02-03T09:01:48.533Z,8.00
2023-02-03T09:03:51.323Z,7.67
2023-02-03T09:05:54.204Z,8.30
2023-02-03T09:07:57.282Z,8.90
2023-02-03T09:10:01.415Z,8.90
2023-02-03T09:12:05.400Z,9.53
2023-02-03T09:14:08.196Z,8.50
2023-02-03T09:16:11.283Z,8.47
2023-02-03T09:18:13.967Z,8.67
2023-02-03T09:20:16.875Z,9.10
2023-02-03T09:22:19.549Z,8.00
2023-02-03T09:24:22.740Z,8.50
2023-02-03T09:26:26.711Z,7.83
2023-02-03T09:28:29.425Z,7.77
2023-02-03T09:30:32.520Z,8.40
2023-02-03T09:32:35.723Z,8.40
2023-02-03T09:34:39.791Z,7.40
2023-02-03T09:36:43.222Z,8.00
2023-02-03T09:38:46.031Z,8.73
2023-02-03T09:40:55.469Z,8.17
2023-02-03T09:43:09.577Z,8.40
2023-02-03T09:45:16.144Z,7.77
2023-02-03T09:47:21.120Z,6.93
2023-02-03T09:49:26.668Z,8.10
2023-02-03T09:51:31.164Z,7.83
2023-02-03T09:53:38.326Z,8.77
2023-02-03T09:55:42.417Z,7.60
2023-02-03T09:57:49.108Z,7.30
2023-02-03T09:59:53.278Z,6.93
2023-02-03T10:01:58.436Z,7.00
2023-02-03T10:04:03.261Z,7.20
2023-02-03T10:06:11.800Z,5.90
2023-02-03T10:08:18.465Z,6.87
2023-02-03T10:10:23.980Z,5.67
2023-02-03T10:12:38.930Z,5.40
2023-02-03T10:14:47.844Z,5.30
2023-02-03T10:16:59.033Z,5.30
2023-02-03T10:19:04.183Z,5.50
2023-02-03T10:21:13.219Z,4.80
2023-02-03T10:23:23.712Z,4.30
2023-02-03T10:25:28.417Z,4.13
2023-02-03T10:27:31.425Z,4.20
2023-02-03T10:29:37.010Z,4.50
2023-02-03T10:31:39.833Z,5.17
2023-02-03T10:33:43.819Z,4.70
2023-02-03T10:35:50.299Z,4.97
2023-02-03T10:37:53.074Z,4.53
2023-02-03T10:39:55.809Z,5.40
2023-02-03T10:41:58.487Z,5.10
2023-02-03T10:44:02.823Z,4.97
2023-02-03T10:46:05.701Z,8.23
2023-02-03T10:48:11.732Z,9.23
2023-02-03T10:50:20.917Z,9.90
2023-02-03T10:52:28.529Z,11.27
2023-02-03T10:54:32.892Z,11.00
2023-02-03T10:56:40.077Z,10.77
2023-02-03T10:58:53.553Z,9.57
2023-02-03T11:00:57.363Z,11.33
2023-02-03T11:03:02.481Z,10.80
2023-02-03T11:05:09.936Z,10.77
2023-02-03T11:07:25.141Z,11.07
2023-02-03T11:09:34.676Z,8.00
2023-02-03T11:11:41.569Z,11.30
2023-02-03T11:13:44.387Z,10.37
2023-02-03T11:15:53.825Z,9.70
2023-02-03T11:17:56.536Z,11.30
2023-02-03T11:20:01.056Z,10.20
2023-02-03T11:22:03.939Z,9.43
2023-02-03T11:24:12.345Z,8.47
2023-02-03T11:26:19.701Z,10.00
2023-02-03T11:28:32.281Z,10.50
2023-02-03T11:30:34.941Z,9.37
2023-02-03T11:32:38.869Z,9.33
2023-02-03T11:34:50.442Z,9.60
2023-02-03T11:36:53.275Z,8.50
2023-02-03T11:39:22.425Z,8.13
2023-02-03T11:41:25.457Z,9.70
2023-02-03T11:43:30.142Z,7.87
2023-02-03T11:45:37.478Z,9.23
2023-02-03T11:47:44.746Z,8.10
2023-02-03T11:49:58.222Z,7.93
2023-02-03T11:52:04.000Z,8.77
2023-02-03T11:54:16.197Z,10.00
2023-02-03T11:56:28.482Z,8.70
2023-02-03T11:58:47.176Z,8.93
2023-02-03T12:00:54.021Z,9.03
2023-02-03T12:03:08.107Z,8.73
2023-02-03T12:05:19.618Z,8.23
2023-02-03T12:07:32.450Z,8.27
2023-02-03T12:09:40.281Z,7.63
2023-02-03T12:11:55.165Z,8.43
2023-02-03T12:14:04.913Z,8.63
2023-02-03T12:16:15.996Z,9.20
2023-02-03T12:18:27.875Z,9.57
2023-02-03T12:20:37.691Z,9.33
2023-02-03T12:22:48.526Z,9.47
2023-02-03T12:24:55.952Z,9.23
2023-02-03T12:27:10.040Z,10.77
2023-02-03T12:29:13.727Z,10.87
2023-02-03T12:31:19.183Z,12.03
2023-02-03T12:33:23.259Z,11.93
2023-02-03T12:35:27.895Z,13.07
2023-02-03T12:37:32.787Z,12.37
2023-02-03T12:39:37.634Z,12.50
2023-02-03T12:41:41.931Z,9.63
2023-02-03T12:43:49.326Z,11.20
2023-02-03T12:45:54.291Z,9.20
2023-02-03T12:47:58.160Z,8.60
2023-02-03T12:50:02.591Z,9.10
2023-02-03T12:52:07.047Z,9.07
2023-02-03T12:54:24.373Z,8.70
2023-02-03T12:56:28.112Z,8.77
2023-02-03T12:58:34.574Z,8.90
2023-02-03T13:00:43.086Z,8.80
2023-02-03T13:02:53.673Z,8.70
2023-02-03T13:05:01.830Z,8.57
2023-02-03T13:07:08.068Z,8.40
2023-02-03T13:09:25.072Z,8.57
2023-02-03T13:11:30.335Z,9.37
2023-02-03T13:13:38.858Z,9.00
2023-02-03T13:15:44.818Z,9.70
2023-02-03T13:17:49.795Z,9.47
2023-02-03T13:19:53.406Z,8.00
2023-02-03T13:21:56.542Z,7.67
2023-02-03T13:23:59.335Z,7.70
2023-02-03T13:26:17.684Z,8.67
2023-02-03T13:28:24.700Z,7.47
2023-02-03T13:30:35.120Z,8.30
2023-02-03T13:32:47.064Z,8.97
2023-02-03T13:34:56.208Z,10.73
2023-02-03T13:37:10.556Z,10.23
2023-02-03T13:39:30.306Z,11.00
2023-02-03T13:41:37.905Z,8.60
2023-02-03T13:43:41.736Z,11.20
2023-02-03T13:45:45.647Z,11.10
2023-02-03T13:47:51.073Z,12.90
2023-02-03T13:49:56.112Z,11.57
2023-02-03T13:51:59.185Z,12.93
2023-02-03T13:54:03.815Z,11.70
2023-02-03T13:56:07.442Z,15.00
2023-02-03T13:58:22.871Z,13.87
2023-02-03T14:00:49.363Z,13.20
2023-02-03T14:02:55.178Z,12.47
2023-02-03T14:04:58.419Z,13.10
2023-02-03T14:07:02.915Z,10.93
2023-02-03T14:09:20.344Z,12.47
2023-02-03T14:11:43.220Z,12.37
2023-02-03T14:13:45.944Z,11.80
2023-02-03T14:16:05.945Z,11.30
2023-02-03T14:18:32.373Z,12.80
2023-02-03T14:20:41.119Z,10.20
2023-02-03T14:22:43.896Z,10.73
2023-02-03T14:24:48.036Z,11.63
2023-02-03T14:26:54.791Z,10.50
2023-02-03T14:28:57.799Z,10.50
2023-02-03T14:31:16.224Z,12.50
2023-02-03T14:33:19.376Z,10.60
2023-02-03T14:35:23.891Z,10.47
2023-02-03T14:37:28.517Z,10.50
2023-02-03T14:39:55.189Z,10.70
2023-02-03T14:42:02.160Z,11.03
2023-02-03T14:44:06.697Z,12.23
2023-02-03T14:46:17.889Z,12.40
2023-02-03T14:48:34.243Z,10.80
2023-02-03T14:50:45.392Z,12.30
2023-02-03T14:53:00.103Z,11.60
2023-02-03T14:55:13.413Z,10.80
2023-02-03T14:57:26.926Z,10.70
2023-02-03T14:59:33.095Z,12.57
2023-02-03T15:02:00.063Z,12.70
2023-02-03T15:04:22.047Z,11.77
2023-02-03T15:06:38.240Z,11.90
2023-02-03T15:08:44.696Z,12.40
2023-02-03T15:10:48.060Z,12.20
2023-02-03T15:12:51.489Z,11.73
2023-02-03T15:14:54.486Z,10.67
2023-02-03T15:16:58.911Z,13.00
2023-02-03T15:19:07.373Z,11.60
2023-02-03T15:21:16.013Z,12.27
2023-02-03T15:23:20.584Z,10.47
2023-02-03T15:25:26.504Z,12.37
2023-02-03T15:27:30.736Z,13.10
2023-02-03T15:29:34.088Z,12.40
2023-02-03T15:31:39.759Z,12.23
2023-02-03T15:33:45.307Z,11.87
2023-02-03T15:35:49.132Z,12.73
2023-02-03T15:37:53.118Z,11.60
2023-02-03T15:40:01.192Z,12.20
2023-02-03T15:42:05.475Z,13.77
2023-02-03T15:44:10.224Z,12.43
2023-02-03T15:46:18.313Z,12.00
2023-02-03T15:48:25.899Z,12.83
2023-02-03T15:50:31.694Z,13.70
2023-02-03T15:52:37.200Z,11.80
2023-02-03T15:54:42.486Z,12.47
2023-02-03T15:56:51.358Z,11.67
2023-02-03T15:58:58.762Z,12.30
2023-02-03T16:01:03.490Z,11.93
2023-02-03T16:03:08.078Z,11.43
2023-02-03T16:05:21.335Z,11.73
2023-02-03T16:07:25.483Z,11.50
2023-02-03T16:09:31.012Z,10.63
2023-02-03T16:11:34.713Z,10.47
2023-02-03T16:13:40.152Z,12.40
2023-02-03T16:15:44.142Z,11.77
2023-02-03T16:17:47.350Z,11.37
2023-02-03T16:19:51.334Z,11.70
2023-02-03T16:21:55.028Z,11.60
2023-02-03T16:23:58.195Z,12.17
2023-02-03T16:26:06.843Z,11.73
2023-02-03T16:28:30.300Z,11.93
2023-02-03T16:30:45.559Z,11.73
2023-02-03T16:33:12.497Z,11.33
2023-02-03T16:35:32.231Z,11.20
2023-02-03T16:37:46.768Z,11.33
2023-02-03T16:40:07.977Z,10.40
2023-02-03T16:42:26.325Z,10.63
2023-02-03T16:44:40.025Z,10.77
2023-02-03T16:47:02.366Z,10.33
2023-02-03T16:49:17.373Z,10.80
2023-02-03T16:51:21.093Z,11.50
2023-02-03T16:53:24.685Z,10.37
2023-02-03T16:55:27.945Z,9.33
2023-02-03T16:57:30.820Z,10.07
2023-02-03T16:59:33.603Z,10.17
2023-02-03T17:01:36.796Z,9.80
2023-02-03T17:03:39.784Z,11.33
2023-02-03T17:05:44.961Z,10.80
2023-02-03T17:07:47.706Z,12.60
2023-02-03T17:09:50.786Z,10.40
2023-02-03T17:11:53.557Z,12.00
2023-02-03T17:13:56.401Z,11.67
2023-02-03T17:15:59.632Z,12.27
2023-02-03T17:18:12.624Z,12.37
2023-02-03T17:20:16.559Z,11.27
2023-02-03T17:22:20.658Z,11.10
2023-02-03T17:24:23.420Z,11.73
2023-02-03T17:26:26.488Z,11.70
2023-02-03T17:28:29.323Z,11.60
2023-02-03T17:30:33.996Z,12.00
2023-02-03T17:32:36.865Z,13.13
2023-02-03T17:34:40.095Z,13.57
2023-02-03T17:36:43.072Z,11.80
2023-02-03T17:54:30.378Z,18.97
2023-02-03T17:56:33.687Z,22.13
2023-02-03T17:58:36.447Z,22.40
2023-02-03T18:00:39.241Z,25.07
2023-02-03T18:02:43.132Z,22.20
2023-02-03T18:04:46.287Z,24.37
2023-02-03T18:06:49.096Z,22.30
2023-02-03T18:08:53.024Z,25.57
2023-02-03T18:10:57.509Z,26.50
2023-02-03T18:13:00.782Z,23.73
2023-02-03T18:15:03.517Z,23.13
2023-02-03T18:17:06.532Z,20.63
2023-02-03T18:19:10.023Z,24.43
2023-02-03T18:21:14.661Z,21.80
2023-02-03T18:23:17.438Z,21.17
2023-02-03T18:25:20.137Z,23.87
2023-02-03T18:27:27.822Z,18.17
2023-02-03T18:29:30.886Z,21.20
2023-02-03T18:31:33.727Z,19.00
2023-02-03T18:33:36.888Z,16.57
2023-02-03T18:35:40.116Z,19.87
2023-02-03T18:37:42.932Z,17.90
2023-02-03T18:39:45.627Z,19.23
2023-02-03T18:41:48.354Z,20.17
2023-02-03T18:43:55.720Z,19.80
2023-02-03T18:45:58.542Z,18.90
2023-02-03T18:48:04.197Z,19.23
2023-02-03T18:50:07.562Z,17.93
2023-02-03T18:52:13.815Z,18.50
2023-02-03T18:54:16.529Z,19.77
2023-02-03T18:56:20.074Z,18.20
2023-02-03T18:58:22.802Z,17.20
2023-02-03T19:00:27.592Z,17.60
2023-02-03T19:02:30.380Z,16.07
2023-02-03T19:04:33.386Z,17.40
2023-02-03T19:06:36.473Z,18.00
2023-02-03T19:08:39.211Z,18.13
2023-02-03T19:10:41.933Z,17.43
2023-02-03T19:12:45.260Z,17.63
2023-02-03T19:14:48.366Z,16.27
2023-02-03T19:16:53.103Z,14.80
2023-02-03T19:18:55.824Z,17.03
2023-02-03T19:20:58.770Z,14.80
2023-02-03T19:23:03.421Z,15.40
2023-02-03T19:25:07.291Z,16.53
2023-02-03T19:27:10.219Z,15.43
2023-02-03T19:29:13.101Z,15.90
2023-02-03T19:31:16.593Z,16.50
2023-02-03T19:33:20.636Z,17.50
2023-02-03T19:35:23.362Z,17.37
2023-02-03T19:37:26.213Z,16.60
2023-02-03T19:39:31.602Z,16.57
2023-02-03T19:41:36.435Z,17.17
2023-02-03T19:43:39.996Z,18.20
2023-02-03T19:45:45.275Z,18.20
2023-02-03T19:47:49.032Z,18.63
2023-02-03T19:50:01.282Z,19.53
2023-02-03T19:52:05.338Z,16.87
2023-02-03T19:54:08.666Z,17.80
2023-02-03T19:56:14.870Z,19.37
2023-02-03T19:58:17.592Z,18.20
2023-02-03T20:00:21.088Z,14.57
2023-02-03T20:02:25.916Z,16.80
2023-02-03T20:04:28.678Z,16.00
2023-02-03T20:06:32.792Z,17.77
2023-02-03T20:08:35.600Z,16.33
2023-02-03T20:10:44.524Z,17.63
2023-02-03T20:12:47.300Z,17.27
2023-02-03T20:14:50.090Z,16.90
2023-02-03T20:16:53.025Z,15.97
2023-02-03T20:18:56.225Z,15.80
2023-02-03T20:20:59.558Z,16.57
2023-02-03T20:23:03.923Z,16.07
2023-02-03T20:25:07.107Z,15.50
2023-02-03T20:27:10.246Z,14.60
2023-02-03T20:29:12.941Z,13.90
2023-02-03T20:31:15.851Z,13.70
2023-02-03T20:33:18.661Z,16.00
2023-02-03T20:35:23.701Z,15.40
2023-02-03T20:37:29.194Z,14.13
2023-02-03T20:39:33.217Z,13.40
2023-02-03T20:41:36.076Z,14.00
2023-02-03T20:43:39.288Z,14.20
2023-02-03T20:45:42.039Z,10.87
2023-02-03T20:47:45.040Z,13.13
2023-02-03T20:49:49.382Z,12.80
2023-02-03T20:51:52.502Z,13.00
2023-02-03T20:53:58.315Z,13.60
2023-02-03T20:56:02.297Z,11.77
2023-02-03T20:58:07.342Z,12.90
2023-02-03T21:00:15.711Z,13.70
2023-02-03T21:02:22.278Z,13.43
2023-02-03T21:04:36.105Z,10.73
2023-02-03T21:06:39.587Z,13.13
2023-02-03T21:08:44.250Z,12.87
2023-02-03T21:10:47.568Z,12.10
2023-02-03T21:12:51.639Z,11.97
2023-02-03T21:14:55.168Z,12.23
2023-02-03T21:16:57.912Z,10.40
2023-02-03T21:19:02.795Z,11.90
2023-02-03T21:21:05.878Z,10.20
2023-02-03T21:23:11.196Z,11.83
2023-02-03T21:25:26.894Z,10.00
2023-02-03T21:27:30.616Z,9.87
2023-02-03T21:29:35.684Z,10.20
2023-02-03T21:31:38.914Z,10.67
2023-02-03T21:33:43.657Z,9.93
2023-02-03T21:35:46.604Z,9.80
2023-02-03T21:37:50.153Z,10.37
2023-02-03T21:39:52.898Z,11.60
2023-02-03T21:41:55.884Z,10.60
2023-02-03T21:43:58.749Z,10.37
2023-02-03T21:46:03.324Z,9.13
2023-02-03T21:48:23.436Z,9.90
2023-02-03T21:50:28.125Z,10.90
2023-02-03T21:52:30.954Z,9.67
2023-02-03T21:54:34.294Z,11.30
2023-02-03T21:56:38.982Z,9.10
2023-02-03T21:58:41.706Z,9.37
2023-02-03T22:00:48.112Z,9.47
2023-02-03T22:02:57.340Z,9.00
2023-02-03T22:05:00.582Z,9.50
2023-02-03T22:07:03.299Z,9.00
2023-02-03T22:09:06.186Z,8.77
2023-02-03T22:11:09.395Z,8.80
2023-02-03T22:13:13.116Z,9.40
2023-02-03T22:15:15.855Z,9.43
2023-02-03T22:17:18.633Z,8.17
2023-02-03T22:19:24.138Z,8.30
2023-02-03T22:21:26.920Z,8.83
2023-02-03T22:23:29.657Z,8.90
2023-02-03T22:25:32.528Z,8.27
2023-02-03T22:27:35.573Z,8.60
2023-02-03T22:29:38.499Z,8.30
2023-02-03T22:31:42.826Z,8.70
2023-02-03T22:33:45.735Z,8.97
2023-02-03T22:35:49.742Z,7.70
2023-02-03T22:37:53.797Z,7.97
2023-02-03T22:39:56.461Z,7.83
2023-02-03T22:41:59.117Z,7.10
2023-02-03T22:44:03.065Z,7.30
2023-02-03T22:46:06.791Z,7.80
2023-02-03T22:48:09.520Z,7.97
2023-02-03T22:50:12.878Z,8.10
2023-02-03T22:52:17.220Z,6.87
2023-02-03T22:54:19.992Z,7.60
2023-02-03T22:56:23.700Z,7.40
2023-02-03T22:58:29.270Z,7.80
2023-02-03T23:00:32.865Z,6.67
2023-02-03T23:02:35.631Z,7.40
2023-02-03T23:04:38.366Z,7.07
2023-02-03T23:06:41.106Z,7.73
2023-02-03T23:08:45.587Z,6.50
2023-02-03T23:10:48.561Z,7.77
2023-02-03T23:12:51.331Z,7.87
2023-02-03T23:14:54.050Z,8.20
2023-02-03T23:16:57.277Z,8.00
2023-02-03T23:18:59.977Z,7.10
2023-02-03T23:21:02.702Z,7.10
2023-02-03T23:23:05.416Z,6.90
2023-02-03T23:25:10.388Z,5.90
2023-02-03T23:27:15.933Z,7.10
2023-02-03T23:29:18.729Z,6.87
2023-02-03T23:31:21.485Z,6.80
2023-02-03T23:33:24.796Z,6.87
2023-02-03T23:35:38.447Z,6.50
2023-02-03T23:37:41.177Z,6.53
2023-02-03T23:39:43.856Z,6.90
2023-02-03T23:41:48.138Z,6.87
2023-02-03T23:43:50.919Z,5.97
2023-02-03T23:45:53.619Z,6.00
2023-02-03T23:47:56.566Z,6.30
2023-02-03T23:49:59.625Z,5.60
2023-02-03T23:52:02.363Z,6.07
2023-02-03T23:54:05.100Z,5.80
2023-02-03T23:56:08.019Z,5.60
2023-02-03T23:58:12.449Z,7.10
